Time;durP1;ratioP1;P1;durP2;ratioP2;P2;SDS_P1;SDS_P2;PMS_P1;PMS_P2;Temp;Humidity;BMP_temperature;BMP_pressure;BME280_temperature;BME280_humidity;BME280_pressure;Samples;Min_cycle;Max_cycle;Signal;HPM_P1;HPM_P2
2021/11/16 00:01:36;;;;;;;28.85;10.02;;;6.30;99.90;;;;;;5027215;28;20482;-73
2021/11/16 00:04:03;;;;;;;23.23;9.00;;;6.20;99.90;;;;;;5027207;28;20030;-73
2021/11/16 00:06:29;;;;;;;23.50;9.20;;;6.30;99.90;;;;;;5025693;28;20033;-74
2021/11/16 00:08:55;;;;;;;29.13;8.70;;;6.30;99.90;;;;;;5025652;28;20026;-72
2021/11/16 00:11:21;;;;;;;28.45;10.13;;;6.30;99.90;;;;;;5026790;28;20052;-74
2021/11/16 00:13:48;;;;;;;38.47;10.20;;;6.30;99.90;;;;;;5026937;28;20086;-73
2021/11/16 00:16:14;;;;;;;29.05;9.57;;;6.40;99.90;;;;;;5024429;28;20018;-74
2021/11/16 00:18:40;;;;;;;26.45;9.85;;;6.40;99.90;;;;;;5026841;28;20030;-72
2021/11/16 00:21:07;;;;;;;28.15;9.25;;;6.20;99.90;;;;;;5027019;28;20030;-73
2021/11/16 00:23:36;;;;;;;25.75;9.10;;;6.30;99.90;;;;;;5027424;28;20093;-74
2021/11/16 00:26:07;;;;;;;24.63;9.18;;;6.30;99.90;;;;;;5026704;28;20373;-72
2021/11/16 00:28:33;;;;;;;32.97;10.50;;;6.30;99.90;;;;;;5026650;28;20580;-72
2021/11/16 00:30:59;;;;;;;21.25;8.38;;;6.30;99.90;;;;;;5026007;28;20054;-74
2021/11/16 00:33:27;;;;;;;27.85;9.77;;;6.30;99.90;;;;;;5037532;28;20021;-73
2021/11/16 00:35:53;;;;;;;24.10;9.63;;;6.30;99.90;;;;;;5046270;28;20025;-73
2021/11/16 00:38:20;;;;;;;27.08;9.35;;;6.30;99.90;;;;;;5046234;28;20029;-73
2021/11/16 00:40:47;;;;;;;29.00;10.48;;;6.20;99.90;;;;;;5046283;28;20029;-72
2021/11/16 00:43:13;;;;;;;28.98;9.02;;;6.20;99.90;;;;;;5046166;28;20037;-75
2021/11/16 00:45:42;;;;;;;23.75;9.00;;;6.20;99.90;;;;;;5046480;28;20100;-73
2021/11/16 00:48:10;;;;;;;18.17;7.88;;;6.20;99.90;;;;;;5046116;28;20030;-73
2021/11/16 00:50:39;;;;;;;24.17;9.50;;;6.20;99.90;;;;;;5046109;28;20219;-73
2021/11/16 00:53:06;;;;;;;21.08;8.18;;;6.20;99.90;;;;;;5045597;28;20033;-73
2021/11/16 00:55:33;;;;;;;18.42;7.47;;;6.30;99.90;;;;;;5046094;28;20030;-73
2021/11/16 00:57:58;;;;;;;25.88;9.00;;;6.20;99.90;;;;;;5044659;28;20026;-73
2021/11/16 01:00:24;;;;;;;24.88;7.07;;;6.20;99.90;;;;;;5045680;28;20075;-71
2021/11/16 01:02:50;;;;;;;15.00;6.10;;;6.20;99.90;;;;;;5030719;28;20022;-71
2021/11/16 01:05:16;;;;;;;21.00;6.88;;;6.20;99.90;;;;;;5025984;28;20029;-71
2021/11/16 01:07:42;;;;;;;20.15;7.65;;;6.20;99.90;;;;;;5025795;28;20030;-73
2021/11/16 01:10:12;;;;;;;27.88;8.38;;;6.20;99.90;;;;;;5025900;28;20034;-74
2021/11/16 01:12:41;;;;;;;15.95;7.13;;;6.20;99.90;;;;;;5024472;28;20026;-73
2021/11/16 01:15:10;;;;;;;21.90;7.50;;;6.10;99.90;;;;;;5025908;28;20030;-74
2021/11/16 01:17:36;;;;;;;23.95;8.52;;;6.20;99.90;;;;;;5024639;28;20041;-74
2021/11/16 01:20:05;;;;;;;24.23;7.95;;;6.20;99.90;;;;;;5026048;28;20026;-73
2021/11/16 01:22:31;;;;;;;17.30;7.20;;;6.20;99.90;;;;;;5025545;28;20048;-73
2021/11/16 01:24:56;;;;;;;22.48;8.38;;;6.20;99.90;;;;;;5025401;28;20054;-74
2021/11/16 01:27:25;;;;;;;26.85;9.20;;;6.30;99.90;;;;;;5025784;28;20104;-73
2021/11/16 01:29:50;;;;;;;23.85;8.25;;;6.20;99.90;;;;;;5025444;28;20066;-74
2021/11/16 01:32:28;;;;;;;23.50;8.07;;;6.20;99.90;;;;;;5025253;28;20116;-72
2021/11/16 01:34:54;;;;;;;29.08;7.93;;;6.20;99.90;;;;;;5025438;28;20478;-72
2021/11/16 01:37:22;;;;;;;23.38;7.03;;;6.30;99.90;;;;;;5024149;28;20022;-71
2021/11/16 01:39:50;;;;;;;31.15;8.15;;;6.30;99.90;;;;;;5025058;28;20033;-71
2021/11/16 01:42:17;;;;;;;24.13;6.80;;;6.30;99.90;;;;;;5025243;28;20022;-70
2021/11/16 01:44:43;;;;;;;18.10;6.65;;;6.30;99.90;;;;;;5025267;28;20086;-71
2021/11/16 01:47:09;;;;;;;22.67;7.68;;;6.30;99.90;;;;;;5023916;28;20022;-72
2021/11/16 01:49:34;;;;;;;22.27;7.88;;;6.30;99.90;;;;;;5025040;28;20030;-72
2021/11/16 01:52:00;;;;;;;20.48;7.88;;;6.30;99.90;;;;;;5025244;28;20121;-73
2021/11/16 01:54:25;;;;;;;29.00;8.60;;;6.40;99.90;;;;;;5024944;28;20136;-72
2021/11/16 01:56:51;;;;;;;24.95;6.78;;;6.20;99.90;;;;;;5025009;28;20386;-71
2021/11/16 01:59:19;;;;;;;20.23;8.18;;;6.40;99.90;;;;;;5025054;28;20025;-70
2021/11/16 02:01:47;;;;;;;24.10;8.60;;;6.20;99.90;;;;;;5024852;28;20037;-72
2021/11/16 02:04:13;;;;;;;19.08;6.07;;;6.20;99.90;;;;;;5024913;28;20026;-73
2021/11/16 02:06:44;;;;;;;19.15;7.18;;;6.10;99.90;;;;;;5024926;28;20072;-73
2021/11/16 02:09:13;;;;;;;34.50;8.07;;;6.10;99.90;;;;;;5023753;28;20030;-72
2021/11/16 02:11:39;;;;;;;22.45;7.25;;;6.20;99.90;;;;;;5026117;28;20145;-74
2021/11/16 02:14:07;;;;;;;21.58;7.63;;;6.10;99.90;;;;;;5025112;28;20038;-73
2021/11/16 02:16:36;;;;;;;27.55;8.02;;;6.10;99.90;;;;;;5024998;28;20030;-74
2021/11/16 02:19:08;;;;;;;18.85;6.65;;;6.20;99.90;;;;;;5024719;28;20101;-74
2021/11/16 02:21:36;;;;;;;22.30;6.57;;;6.10;99.90;;;;;;5025038;28;20050;-72
2021/11/16 02:24:03;;;;;;;19.38;7.25;;;6.10;99.90;;;;;;5024639;28;20029;-74
2021/11/16 02:26:29;;;;;;;26.27;7.32;;;6.10;99.90;;;;;;5024703;28;20030;-74
2021/11/16 02:28:55;;;;;;;17.17;7.22;;;6.10;99.90;;;;;;5024690;28;20067;-74
2021/11/16 02:31:21;;;;;;;20.38;7.40;;;6.10;99.90;;;;;;5035074;28;20605;-73
2021/11/16 02:33:47;;;;;;;20.58;7.32;;;6.10;99.90;;;;;;5043047;28;20029;-73
2021/11/16 02:36:14;;;;;;;21.17;7.43;;;6.10;99.90;;;;;;5044344;28;20068;-73
2021/11/16 02:38:41;;;;;;;23.77;8.57;;;6.10;99.90;;;;;;5044530;28;20025;-74
2021/11/16 02:41:09;;;;;;;18.10;7.45;;;6.10;99.90;;;;;;5044531;28;20089;-73
2021/11/16 02:43:37;;;;;;;22.70;7.15;;;6.10;99.90;;;;;;5043346;28;20040;-73
2021/11/16 02:46:03;;;;;;;27.27;8.20;;;6.10;99.90;;;;;;5044658;28;20057;-75
2021/11/16 02:48:31;;;;;;;26.20;8.27;;;6.10;99.90;;;;;;5037241;28;20041;-71
2021/11/16 02:50:59;;;;;;;19.05;7.30;;;6.10;99.90;;;;;;5024298;28;20041;-72
2021/11/16 02:53:25;;;;;;;16.60;6.85;;;6.20;99.90;;;;;;5024604;28;20022;-73
2021/11/16 02:55:52;;;;;;;20.30;8.75;;;6.10;99.90;;;;;;5023116;28;20026;-72
2021/11/16 02:58:19;;;;;;;24.75;9.10;;;6.10;99.90;;;;;;5024338;28;20026;-74
2021/11/16 03:00:52;;;;;;;21.85;8.00;;;6.10;99.90;;;;;;5022948;28;20034;-74
2021/11/16 03:03:19;;;;;;;27.88;7.43;;;6.10;99.90;;;;;;5024188;28;20096;-74
2021/11/16 03:05:45;;;;;;;16.08;6.30;;;6.10;99.90;;;;;;5024271;28;20030;-74
2021/11/16 03:08:20;;;;;;;19.05;8.13;;;6.10;99.90;;;;;;5024680;28;20050;-76
2021/11/16 03:10:46;;;;;;;29.17;8.05;;;6.10;99.90;;;;;;5023130;28;20069;-73
2021/11/16 03:13:12;;;;;;;20.15;7.53;;;6.10;99.90;;;;;;5024463;28;20037;-74
2021/11/16 03:15:43;;;;;;;16.65;5.63;;;6.00;99.90;;;;;;5024822;28;20026;-75
2021/11/16 03:18:11;;;;;;;24.60;7.57;;;6.00;99.90;;;;;;5027953;28;20025;-72
2021/11/16 03:20:38;;;;;;;18.30;7.47;;;6.10;99.90;;;;;;5028099;28;20021;-75
2021/11/16 03:23:37;;;;;;;25.40;7.80;;;6.00;99.90;;;;;;5028144;28;20030;-74
2021/11/16 03:25:58;;;;;;;19.00;6.75;;;6.00;99.90;;;;;;5027633;28;20061;-73
2021/11/16 03:28:28;;;;;;;20.00;7.90;;;6.00;99.90;;;;;;5028285;28;20026;-73
2021/11/16 03:30:58;;;;;;;14.23;6.75;;;6.00;99.90;;;;;;5026687;28;20046;-73
2021/11/16 03:33:27;;;;;;;20.13;6.82;;;6.00;99.90;;;;;;5027767;28;20030;-74
2021/11/16 03:35:53;;;;;;;29.67;8.13;;;6.10;99.90;;;;;;5027496;28;20042;-72
2021/11/16 03:38:21;;;;;;;21.75;7.40;;;6.10;99.90;;;;;;5027552;28;20022;-72
2021/11/16 03:40:51;;;;;;;19.13;6.82;;;6.10;99.90;;;;;;5027446;28;20048;-74
2021/11/16 03:43:17;;;;;;;27.95;7.07;;;6.10;99.90;;;;;;5027550;28;20021;-73
2021/11/16 03:45:49;;;;;;;22.60;8.38;;;6.10;99.90;;;;;;5037316;28;20025;-74
2021/11/16 03:48:15;;;;;;;22.40;7.78;;;6.10;99.90;;;;;;5027347;28;20061;-73
2021/11/16 03:50:41;;;;;;;22.50;8.65;;;6.10;99.90;;;;;;5026512;28;20045;-74
2021/11/16 03:53:10;;;;;;;19.50;7.18;;;6.20;99.90;;;;;;5047341;28;20386;-73
2021/11/16 03:55:37;;;;;;;26.20;8.88;;;6.30;99.90;;;;;;5047306;28;20021;-74
2021/11/16 03:58:04;;;;;;;26.40;7.90;;;6.20;99.90;;;;;;5045727;28;20034;-74
2021/11/16 04:00:40;;;;;;;20.35;6.90;;;6.20;99.90;;;;;;5045397;28;20033;-73
2021/11/16 04:03:07;;;;;;;21.90;8.15;;;6.20;99.90;;;;;;5045555;28;20060;-74
2021/11/16 04:05:33;;;;;;;19.13;6.90;;;6.20;99.90;;;;;;5047039;28;20026;-73
2021/11/16 04:07:59;;;;;;;19.17;6.68;;;6.10;99.90;;;;;;5046794;28;20081;-73
2021/11/16 04:10:26;;;;;;;24.67;8.45;;;6.10;99.90;;;;;;5046518;28;20042;-73
2021/11/16 04:12:52;;;;;;;19.20;7.45;;;6.20;99.90;;;;;;5045205;28;20390;-73
2021/11/16 04:15:22;;;;;;;21.60;8.10;;;6.10;99.90;;;;;;5046595;28;20017;-75
2021/11/16 04:17:50;;;;;;;19.98;7.57;;;6.10;99.90;;;;;;5044013;28;20052;-73
2021/11/16 04:20:26;;;;;;;20.02;8.90;;;6.10;99.90;;;;;;5026780;28;20030;-74
2021/11/16 04:22:52;;;;;;;15.98;7.47;;;6.10;99.90;;;;;;5025452;28;20022;-73
2021/11/16 04:25:25;;;;;;;20.05;7.75;;;6.00;99.90;;;;;;5025243;28;20034;-73
2021/11/16 04:27:50;;;;;;;27.75;7.35;;;6.10;99.90;;;;;;5024164;28;20113;-74
2021/11/16 04:30:19;;;;;;;21.00;7.53;;;6.10;99.90;;;;;;5026402;28;20038;-74
2021/11/16 04:32:45;;;;;;;20.13;6.55;;;6.00;99.90;;;;;;5026495;28;20053;-74
2021/11/16 04:35:14;;;;;;;26.00;8.63;;;6.10;99.90;;;;;;5025278;28;20470;-75
2021/11/16 04:37:50;;;;;;;14.10;5.78;;;6.20;99.90;;;;;;5025002;28;20022;-73
2021/11/16 04:40:21;;;;;;;19.73;7.40;;;6.10;99.90;;;;;;5024847;28;20026;-74
2021/11/16 04:42:47;;;;;;;17.83;7.28;;;6.20;99.90;;;;;;5026165;28;20026;-74
2021/11/16 04:45:19;;;;;;;22.25;7.30;;;6.20;99.90;;;;;;5026386;28;20104;-73
2021/11/16 04:48:00;;;;;;;17.63;7.50;;;6.10;99.90;;;;;;5026007;28;20455;-73
2021/11/16 05:03:58;;;;;;;26.05;9.10;;;6.00;99.90;;;;;;5025949;28;20061;-73
2021/11/16 05:06:24;;;;;;;22.17;8.15;;;6.20;99.90;;;;;;5025887;28;20034;-73
2021/11/16 05:08:51;;;;;;;20.33;8.02;;;6.00;99.90;;;;;;5025722;28;20092;-74
2021/11/16 05:11:18;;;;;;;27.25;7.60;;;6.10;99.90;;;;;;5025496;28;20070;-74
2021/11/16 05:13:45;;;;;;;22.52;7.10;;;6.10;99.90;;;;;;5025926;28;20029;-74
2021/11/16 05:16:12;;;;;;;29.30;10.20;;;6.10;99.90;;;;;;5026014;28;20054;-74
2021/11/16 05:18:39;;;;;;;23.88;8.48;;;6.00;99.90;;;;;;5024613;28;20033;-74
2021/11/16 05:21:05;;;;;;;21.08;7.20;;;6.00;99.90;;;;;;5025735;28;20364;-74
2021/11/16 05:23:36;;;;;;;28.08;9.68;;;6.10;99.90;;;;;;5025707;28;20037;-74
2021/11/16 05:26:02;;;;;;;25.08;8.25;;;6.10;99.90;;;;;;5024341;28;20030;-73
2021/11/16 05:28:28;;;;;;;22.88;8.43;;;6.10;99.90;;;;;;5025551;28;20041;-73
2021/11/16 05:30:53;;;;;;;24.50;8.68;;;6.10;99.90;;;;;;5024193;28;20140;-73
2021/11/16 05:33:19;;;;;;;23.77;8.07;;;6.10;99.90;;;;;;5025664;28;20026;-73
2021/11/16 05:35:45;;;;;;;23.55;8.35;;;6.10;99.90;;;;;;5025529;28;20026;-75
2021/11/16 05:38:30;;;;;;;25.02;9.00;;;6.10;99.90;;;;;;5024819;28;20480;-75
2021/11/16 05:40:56;;;;;;;;;;;6.10;99.90;;;;;;5026471;28;20034;-73
2021/11/16 05:43:22;;;;;;;19.48;7.72;;;6.20;99.90;;;;;;5025356;28;20369;-73
2021/11/16 05:45:48;;;;;;;28.98;8.95;;;6.20;99.90;;;;;;5025229;28;20086;-74
2021/11/16 05:48:15;;;;;;;26.73;8.35;;;6.10;99.90;;;;;;5024043;28;20030;-73
2021/11/16 05:50:41;;;;;;;34.20;8.98;;;6.10;99.90;;;;;;5024114;28;20038;-73
2021/11/16 05:53:08;;;;;;;30.13;9.43;;;6.10;99.90;;;;;;5024217;28;20033;-75
2021/11/16 05:55:34;;;;;;;23.17;8.85;;;6.20;99.90;;;;;;5025269;28;20037;-75
2021/11/16 05:58:00;;;;;;;22.95;8.13;;;6.10;99.90;;;;;;5025142;28;20032;-74
2021/11/16 06:00:26;;;;;;;19.15;8.07;;;6.20;99.90;;;;;;5023485;28;20033;-74
2021/11/16 06:02:53;;;;;;;19.80;7.72;;;6.20;99.90;;;;;;5025653;28;20034;-74
2021/11/16 06:05:19;;;;;;;19.27;8.05;;;6.20;99.90;;;;;;5023789;28;20048;-74
2021/11/16 06:07:48;;;;;;;21.05;8.30;;;6.10;99.90;;;;;;5024883;28;20041;-75
2021/11/16 06:10:16;;;;;;;26.75;9.18;;;6.10;99.90;;;;;;5030447;28;20046;-75
2021/11/16 06:12:42;;;;;;;25.92;9.10;;;6.20;99.90;;;;;;5044369;28;20024;-74
2021/11/16 06:15:08;;;;;;;18.38;8.70;;;6.20;99.90;;;;;;5044774;28;20053;-73
2021/11/16 06:17:34;;;;;;;20.33;7.82;;;6.20;99.90;;;;;;5044855;28;20025;-74
2021/11/16 06:20:00;;;;;;;30.33;9.10;;;6.20;99.90;;;;;;5044575;28;20481;-76
2021/11/16 06:22:26;;;;;;;26.88;9.15;;;6.10;99.90;;;;;;5043685;28;20041;-77
2021/11/16 06:24:52;;;;;;;26.90;8.43;;;6.10;99.90;;;;;;5039157;28;20025;-77
2021/11/16 06:27:19;;;;;;;23.25;8.85;;;6.20;99.90;;;;;;5042773;28;20029;-78
2021/11/16 06:29:45;;;;;;;21.40;8.25;;;6.20;99.90;;;;;;5043762;28;20093;-78
2021/11/16 06:32:11;;;;;;;22.35;8.82;;;6.20;99.90;;;;;;5042528;28;20045;-78
2021/11/16 06:34:37;;;;;;;23.48;9.48;;;6.10;99.90;;;;;;5042593;28;20029;-78
2021/11/16 06:37:15;;;;;;;27.17;10.10;;;6.20;99.90;;;;;;5044394;28;20030;-78
2021/11/16 06:39:41;;;;;;;24.73;8.90;;;6.20;99.90;;;;;;5042338;28;20108;-78
2021/11/16 06:42:07;;;;;;;24.55;9.80;;;6.20;99.90;;;;;;5041383;28;20036;-76
2021/11/16 06:44:33;;;;;;;21.63;9.00;;;6.20;99.90;;;;;;5049310;28;20053;-77
2021/11/16 06:46:59;;;;;;;24.33;8.60;;;6.10;99.90;;;;;;5035176;28;20037;-77
2021/11/16 06:49:24;;;;;;;27.77;8.93;;;6.10;99.90;;;;;;5034472;28;20029;-77
2021/11/16 06:51:53;;;;;;;32.80;10.05;;;6.10;99.90;;;;;;5046372;28;20057;-76
2021/11/16 06:54:21;;;;;;;25.15;10.23;;;6.20;99.90;;;;;;5048336;28;20026;-77
2021/11/16 06:56:49;;;;;;;29.55;10.30;;;6.20;99.90;;;;;;5027429;28;20117;-76
2021/11/16 06:59:19;;;;;;;26.77;11.05;;;6.10;99.90;;;;;;5027130;28;20037;-77
2021/11/16 07:01:48;;;;;;;32.75;9.18;;;6.10;99.90;;;;;;5028211;28;20038;-78
2021/11/16 07:04:14;;;;;;;27.02;9.85;;;6.20;99.90;;;;;;5032550;28;20036;-76
2021/11/16 07:06:50;;;;;;;24.38;8.15;;;6.20;99.90;;;;;;5042852;28;20021;-76
2021/11/16 07:09:17;;;;;;;21.13;8.55;;;6.20;99.90;;;;;;5050866;28;20065;-76
2021/11/16 07:11:55;;;;;;;26.73;9.52;;;6.20;99.90;;;;;;5047680;28;20037;-78
2021/11/16 07:14:36;;;;;;;27.33;9.45;;;6.30;99.90;;;;;;5046504;28;20029;-77
2021/11/16 07:17:03;;;;;;;29.27;8.57;;;6.20;99.90;;;;;;5046643;28;20036;-75
2021/11/16 07:19:33;;;;;;;25.23;8.93;;;6.20;99.90;;;;;;5045633;28;20124;-76
2021/11/16 07:22:03;;;;;;;19.42;8.90;;;6.10;99.90;;;;;;5042173;28;20560;-75
2021/11/16 07:24:30;;;;;;;25.85;9.95;;;6.10;99.90;;;;;;5036995;28;20026;-74
2021/11/16 07:27:06;;;;;;;21.85;8.52;;;6.10;99.90;;;;;;5033231;28;20094;-76
2021/11/16 07:29:47;;;;;;;21.73;9.48;;;6.20;99.90;;;;;;5042952;28;20080;-77
2021/11/16 07:32:26;;;;;;;37.80;11.57;;;6.20;99.90;;;;;;5040670;28;20057;-76
2021/11/16 07:35:02;;;;;;;31.38;10.32;;;6.20;99.90;;;;;;5042481;28;20033;-77
2021/11/16 07:37:31;;;;;;;30.48;9.77;;;6.10;99.90;;;;;;5072061;28;20032;-77
2021/11/16 07:40:05;;;;;;;21.50;9.30;;;6.20;99.90;;;;;;5065483;28;20025;-75
2021/11/16 07:42:34;;;;;;;24.40;9.63;;;6.20;99.90;;;;;;5047019;28;20089;-77
2021/11/16 07:45:13;;;;;;;29.35;10.55;;;6.20;99.90;;;;;;5053034;28;20063;-77
2021/11/16 07:47:59;;;;;;;32.40;9.02;;;6.10;99.90;;;;;;5063977;28;20036;-76
2021/11/16 07:50:31;;;;;;;22.20;9.80;;;6.10;99.90;;;;;;5038134;28;20034;-76
2021/11/16 07:53:14;;;;;;;26.15;10.07;;;6.10;99.90;;;;;;5063802;28;20033;-78
2021/11/16 07:55:43;;;;;;;26.90;8.60;;;6.10;99.90;;;;;;5027446;28;20021;-77
2021/11/16 07:58:10;;;;;;;26.90;10.23;;;6.10;99.90;;;;;;5027293;28;20042;-76
2021/11/16 08:00:40;;;;;;;27.25;9.30;;;6.10;99.90;;;;;;5031358;28;20022;-76
2021/11/16 08:03:13;;;;;;;25.85;9.43;;;6.10;99.90;;;;;;5047149;28;20029;-76
2021/11/16 08:11:16;;;;;;;20.17;8.23;;;6.10;99.90;;;;;;5055937;28;20303;-77
2021/11/16 08:14:15;;;;;;;31.95;10.82;;;6.20;99.90;;;;;;5042636;28;20033;-77
2021/11/16 08:17:09;;;;;;;28.73;9.60;;;6.20;99.90;;;;;;5033105;28;20102;-77
2021/11/16 08:19:38;;;;;;;30.70;10.27;;;6.20;99.90;;;;;;5025381;28;20068;-75
2021/11/16 08:22:15;;;;;;;21.52;9.45;;;6.20;99.90;;;;;;5037996;28;20065;-77
2021/11/16 08:24:44;;;;;;;26.48;10.27;;;6.10;99.90;;;;;;5036546;28;20386;-76
2021/11/16 08:27:22;;;;;;;40.22;11.77;;;6.20;99.90;;;;;;5046326;28;20026;-78
2021/11/16 08:29:51;;;;;;;25.25;10.00;;;6.10;99.90;;;;;;5040138;28;20093;-77
2021/11/16 08:32:22;;;;;;;28.05;10.43;;;6.10;99.90;;;;;;5052230;28;20052;-78
2021/11/16 08:35:00;;;;;;;25.30;9.07;;;6.10;99.90;;;;;;5065890;28;20036;-79
2021/11/16 08:37:36;;;;;;;29.98;9.18;;;6.10;99.90;;;;;;5033757;28;20018;-76
2021/11/16 08:40:14;;;;;;;35.58;10.60;;;6.10;99.90;;;;;;5031411;28;20045;-77
2021/11/16 08:43:16;;;;;;;27.45;10.05;;;6.20;99.90;;;;;;5035628;28;20044;-76
2021/11/16 08:45:47;;;;;;;36.47;10.75;;;6.10;99.90;;;;;;5031908;28;20034;-77
2021/11/16 08:48:24;;;;;;;30.35;9.63;;;6.20;99.90;;;;;;5026125;28;20109;-77
2021/11/16 08:50:55;;;;;;;30.65;8.70;;;6.10;99.90;;;;;;5040432;28;20059;-76
2021/11/16 08:53:35;;;;;;;21.25;8.45;;;6.20;99.90;;;;;;5037723;28;20026;-76
2021/11/16 08:56:21;;;;;;;25.85;8.90;;;6.20;99.90;;;;;;5035767;28;20029;-76
2021/11/16 08:58:47;;;;;;;27.70;8.70;;;6.20;99.90;;;;;;5034664;28;20095;-78
2021/11/16 09:01:15;;;;;;;31.55;9.10;;;6.20;99.90;;;;;;5049210;28;20029;-79
2021/11/16 09:03:44;;;;;;;30.73;8.95;;;6.20;99.90;;;;;;5040964;28;20023;-77
2021/11/16 09:06:22;;;;;;;29.42;9.45;;;6.10;99.90;;;;;;5041091;28;20021;-78
2021/11/16 09:09:10;;;;;;;25.27;9.48;;;6.20;99.90;;;;;;5044164;28;20037;-76
2021/11/16 09:11:38;;;;;;;31.70;9.05;;;6.20;99.90;;;;;;5024537;28;20132;-76
2021/11/16 09:14:13;;;;;;;21.00;8.13;;;6.20;99.90;;;;;;5047749;28;20760;-76
2021/11/16 09:16:43;;;;;;;29.25;9.77;;;6.20;99.90;;;;;;5043009;28;20036;-76
2021/11/16 09:19:23;;;;;;;26.92;8.23;;;6.10;99.90;;;;;;5025808;28;20113;-76
2021/11/16 09:21:49;;;;;;;25.92;9.07;;;6.20;99.90;;;;;;5024258;28;20021;-74
2021/11/16 09:24:17;;;;;;;30.58;8.98;;;6.10;99.90;;;;;;5030104;28;20025;-76
2021/11/16 09:29:20;;;;;;;25.98;9.20;;;6.20;99.90;;;;;;5056260;28;20112;-75
2021/11/16 09:31:56;;;;;;;22.17;8.95;;;6.20;99.90;;;;;;5035275;28;20085;-78
2021/11/16 09:34:27;;;;;;;26.92;10.02;;;6.20;99.90;;;;;;5034238;28;20034;-75
2021/11/16 09:37:02;;;;;;;34.30;11.75;;;6.20;99.90;;;;;;5038784;28;20112;-76
2021/11/16 09:39:44;;;;;;;24.73;10.43;;;6.20;99.90;;;;;;5027225;28;20026;-78
2021/11/16 09:42:32;;;;;;;24.92;9.70;;;6.20;99.90;;;;;;5027074;28;20052;-75
2021/11/16 09:45:04;;;;;;;31.67;10.60;;;6.20;99.90;;;;;;5036010;28;20032;-76
2021/11/16 09:47:36;;;;;;;32.72;9.55;;;6.10;99.90;;;;;;5038305;28;20025;-77
2021/11/16 09:50:17;;;;;;;28.38;10.10;;;6.20;99.90;;;;;;5045518;28;20029;-76
2021/11/16 09:52:47;;;;;;;29.17;10.35;;;6.20;99.90;;;;;;5045351;28;20045;-74
2021/11/16 09:55:17;;;;;;;35.13;10.82;;;6.20;99.90;;;;;;5044986;28;20032;-75
2021/11/16 09:57:57;;;;;;;36.72;11.20;;;6.20;99.90;;;;;;5042845;28;20018;-75
2021/11/16 10:00:35;;;;;;;26.60;10.45;;;6.10;99.90;;;;;;5026633;28;20063;-74
2021/11/16 10:03:00;;;;;;;40.42;10.80;;;6.20;99.90;;;;;;5043891;28;20029;-74
2021/11/16 10:05:28;;;;;;;22.73;9.50;;;6.10;99.90;;;;;;5044330;28;20029;-77
2021/11/16 10:08:00;;;;;;;25.85;9.52;;;6.20;99.90;;;;;;5039948;28;20037;-76
2021/11/16 10:10:30;;;;;;;30.80;10.43;;;6.20;99.90;;;;;;5038305;28;20497;-75
2021/11/16 10:13:00;;;;;;;30.15;9.82;;;6.10;99.90;;;;;;5039034;28;20072;-75
2021/11/16 10:15:31;;;;;;;34.03;10.70;;;6.20;99.90;;;;;;5032238;28;20030;-77
2021/11/16 10:17:58;;;;;;;29.15;9.95;;;6.20;99.90;;;;;;5036602;28;20029;-76
2021/11/16 10:20:30;;;;;;;31.00;10.85;;;6.20;99.90;;;;;;5041835;28;20438;-75
2021/11/16 10:22:58;;;;;;;27.48;9.85;;;6.00;99.90;;;;;;5044661;28;20030;-75
2021/11/16 10:25:27;;;;;;;43.58;12.65;;;6.20;99.90;;;;;;5031334;28;20117;-75
2021/11/16 10:27:55;;;;;;;26.52;9.65;;;6.20;99.90;;;;;;5031891;28;20030;-75
2021/11/16 10:30:22;;;;;;;25.88;10.48;;;6.20;99.90;;;;;;5044115;28;20048;-72
2021/11/16 10:33:09;;;;;;;26.98;9.48;;;6.20;99.90;;;;;;5046786;28;20065;-74
2021/11/16 10:35:46;;;;;;;54.47;10.18;;;6.10;99.90;;;;;;5046868;28;20043;-74
2021/11/16 10:38:15;;;;;;;30.85;9.40;;;6.10;99.90;;;;;;5044146;28;20089;-75
2021/11/16 10:40:48;;;;;;;37.22;9.90;;;6.10;99.90;;;;;;5030333;28;20033;-76
2021/11/16 10:43:15;;;;;;;24.98;9.38;;;6.10;99.90;;;;;;5047649;28;20059;-75
2021/11/16 10:45:44;;;;;;;27.52;10.45;;;6.10;99.90;;;;;;5045418;28;20034;-77
2021/11/16 10:48:14;;;;;;;24.98;9.70;;;6.10;99.90;;;;;;5047531;28;20378;-76
2021/11/16 10:50:43;;;;;;;39.50;9.60;;;6.10;99.90;;;;;;5046810;28;20038;-75
2021/11/16 10:53:11;;;;;;;42.05;11.50;;;6.10;99.90;;;;;;5048178;28;20448;-77
2021/11/16 10:55:49;;;;;;;31.80;10.70;;;6.10;99.90;;;;;;5047266;28;20116;-77
2021/11/16 10:58:20;;;;;;;28.63;10.02;;;6.10;99.90;;;;;;5047966;28;20025;-75
2021/11/16 11:00:48;;;;;;;31.58;10.65;;;6.10;99.90;;;;;;5040397;28;20041;-75
2021/11/16 11:03:19;;;;;;;28.08;10.45;;;6.20;99.90;;;;;;5043545;28;20028;-76
2021/11/16 11:05:57;;;;;;;33.60;10.43;;;6.10;99.90;;;;;;5043968;28;20030;-76
2021/11/16 11:08:45;;;;;;;31.00;10.00;;;6.10;99.90;;;;;;5053425;28;20089;-75
2021/11/16 11:11:42;;;;;;;32.67;9.52;;;6.10;99.90;;;;;;5039814;28;20033;-76
2021/11/16 11:14:12;;;;;;;29.55;9.98;;;6.10;99.90;;;;;;5033760;28;20041;-76
2021/11/16 11:16:41;;;;;;;30.25;10.10;;;6.10;99.90;;;;;;5043776;28;20029;-75
2021/11/16 11:19:10;;;;;;;24.75;9.07;;;6.10;99.90;;;;;;5038644;28;20386;-73
2021/11/16 11:21:43;;;;;;;36.60;11.45;;;6.10;99.90;;;;;;5047285;28;20543;-73
2021/11/16 11:24:14;;;;;;;28.75;9.98;;;6.10;99.90;;;;;;5046055;28;20087;-76
2021/11/16 11:26:52;;;;;;;27.50;9.95;;;6.00;99.90;;;;;;5038542;28;20395;-76
2021/11/16 11:29:31;;;;;;;23.88;8.20;;;6.00;99.90;;;;;;5043581;28;20059;-76
2021/11/16 11:32:32;;;;;;;21.02;7.32;;;6.00;99.90;;;;;;5054213;28;20140;-76
2021/11/16 11:35:25;;;;;;;32.80;10.25;;;6.00;99.90;;;;;;5046683;28;20079;-77
2021/11/16 11:37:53;;;;;;;31.13;10.90;;;5.90;99.90;;;;;;5037183;28;20033;-75
2021/11/16 11:40:21;;;;;;;28.05;8.77;;;5.90;99.90;;;;;;5034614;28;20521;-75
2021/11/16 11:42:56;;;;;;;27.08;10.20;;;5.90;99.90;;;;;;5045693;28;20048;-75
2021/11/16 11:45:28;;;;;;;31.55;10.05;;;5.90;99.90;;;;;;5044885;28;20470;-74
2021/11/16 11:48:13;;;;;;;29.77;10.82;;;5.90;99.90;;;;;;5026511;28;20688;-76
2021/11/16 11:50:41;;;;;;;39.15;10.00;;;5.90;99.90;;;;;;5026983;28;20029;-76
2021/11/16 11:53:41;;;;;;;24.42;9.98;;;5.90;99.90;;;;;;5027371;28;20026;-76
2021/11/16 11:56:11;;;;;;;40.92;13.10;;;5.90;99.90;;;;;;5026868;28;20053;-76
2021/11/16 11:58:52;;;;;;;28.88;9.65;;;5.90;99.90;;;;;;5027461;28;20037;-76
2021/11/16 12:01:20;;;;;;;25.95;8.35;;;6.00;99.90;;;;;;5026821;28;20030;-76
2021/11/16 12:03:48;;;;;;;24.65;9.07;;;6.00;99.90;;;;;;5027296;28;20068;-77
2021/11/16 12:06:14;;;;;;;26.10;9.05;;;6.00;99.90;;;;;;5027475;28;20029;-74
2021/11/16 12:08:39;;;;;;;30.38;11.23;;;6.10;99.90;;;;;;5028811;28;20026;-77
2021/11/16 12:11:06;;;;;;;33.05;11.48;;;6.00;99.90;;;;;;5027536;28;20367;-76
2021/11/16 12:13:40;;;;;;;39.53;10.45;;;5.90;99.90;;;;;;5028886;28;20132;-77
2021/11/16 12:16:21;;;;;;;29.55;8.68;;;6.00;99.90;;;;;;5026419;28;20057;-76
2021/11/16 12:18:50;;;;;;;32.70;9.13;;;6.00;99.90;;;;;;5030055;28;20025;-75
2021/11/16 12:21:26;;;;;;;32.25;10.27;;;6.00;99.90;;;;;;5026923;28;20034;-76
2021/11/16 12:23:58;;;;;;;35.90;10.68;;;6.00;99.90;;;;;;5026032;28;20021;-76
2021/11/16 12:26:26;;;;;;;42.67;9.60;;;5.90;99.90;;;;;;5030568;28;20037;-77
2021/11/16 12:28:52;;;;;;;35.20;10.13;;;6.00;99.90;;;;;;5031142;28;20048;-76
2021/11/16 12:31:30;;;;;;;34.95;9.88;;;6.00;99.90;;;;;;5030060;28;20050;-76
2021/11/16 12:33:57;;;;;;;27.17;9.80;;;6.00;99.90;;;;;;5041052;28;20030;-75
2021/11/16 12:36:27;;;;;;;28.17;10.63;;;6.00;99.90;;;;;;5027523;28;20406;-75
2021/11/16 12:38:52;;;;;;;29.35;10.18;;;5.90;99.90;;;;;;5024029;28;20026;-75
2021/11/16 12:41:27;;;;;;;38.75;10.50;;;5.90;99.90;;;;;;5025884;28;20033;-78
2021/11/16 12:43:55;;;;;;;28.42;10.98;;;5.90;99.90;;;;;;5043114;28;20060;-77
2021/11/16 12:46:22;;;;;;;30.42;10.75;;;6.00;99.90;;;;;;5037264;28;20028;-77
2021/11/16 12:48:57;;;;;;;24.15;8.98;;;5.90;99.90;;;;;;5041711;28;20025;-77
2021/11/16 12:51:33;;;;;;;30.75;9.55;;;6.00;99.90;;;;;;5039880;28;20065;-76
2021/11/16 12:54:09;;;;;;;26.13;8.85;;;5.90;99.90;;;;;;5042902;28;20036;-76
2021/11/16 12:56:42;;;;;;;27.40;9.95;;;5.90;99.90;;;;;;5043345;28;20053;-77
2021/11/16 12:59:15;;;;;;;28.90;9.48;;;5.90;99.90;;;;;;5045160;28;20039;-78
2021/11/16 13:01:44;;;;;;;44.63;10.77;;;5.90;99.90;;;;;;5045322;28;20458;-76
2021/11/16 13:04:13;;;;;;;33.65;10.40;;;5.90;99.90;;;;;;5045033;28;20017;-76
2021/11/16 13:07:03;;;;;;;26.88;9.60;;;5.90;99.90;;;;;;5043480;28;20466;-76
2021/11/16 13:09:44;;;;;;;34.92;11.98;;;6.00;99.90;;;;;;5042703;28;20034;-76
2021/11/16 13:12:34;;;;;;;32.08;11.10;;;5.90;99.90;;;;;;5042587;28;20033;-75
2021/11/16 13:15:37;;;;;;;38.20;10.18;;;5.90;99.90;;;;;;5053215;28;20056;-74
2021/11/16 13:18:20;;;;;;;31.65;10.38;;;5.90;99.90;;;;;;5031756;28;20061;-74
2021/11/16 13:21:13;;;;;;;24.92;8.73;;;5.80;99.90;;;;;;5026578;28;20162;-74
2021/11/16 13:23:50;;;;;;;28.90;9.40;;;5.90;99.90;;;;;;5043489;28;20042;-75
2021/11/16 13:26:24;;;;;;;34.15;9.90;;;5.80;99.90;;;;;;5043883;28;20029;-74